sensor_id;sensor_type;location;lat;lon;timestamp;temperature;humidity
4687;DHT22;2357;47.316;-1.348;2023-08-20T00:00:31;21.40;99.90
4687;DHT22;2357;47.316;-1.348;2023-08-20T00:03:06;21.50;99.90
4687;DHT22;2357;47.316;-1.348;2023-08-20T00:05:34;21.50;99.90
4687;DHT22;2357;47.316;-1.348;2023-08-20T00:07:59;21.40;99.90
4687;DHT22;2357;47.316;-1.348;2023-08-20T00:10:25;21.40;99.90
4687;DHT22;2357;47.316;-1.348;2023-08-20T00:12:51;21.30;99.90
4687;DHT22;2357;47.316;-1.348;2023-08-20T00:15:16;21.40;99.90
4687;DHT22;2357;47.316;-1.348;2023-08-20T00:17:43;21.40;99.90
4687;DHT22;2357;47.316;-1.348;2023-08-20T00:20:09;21.30;99.90
4687;DHT22;2357;47.316;-1.348;2023-08-20T00:22:41;21.30;99.90
4687;DHT22;2357;47.316;-1.348;2023-08-20T00:25:08;21.30;99.90
4687;DHT22;2357;47.316;-1.348;2023-08-20T00:27:34;21.20;99.90
4687;DHT22;2357;47.316;-1.348;2023-08-20T00:29:59;21.30;99.90
4687;DHT22;2357;47.316;-1.348;2023-08-20T00:32:25;21.20;99.90
4687;DHT22;2357;47.316;-1.348;2023-08-20T00:34:51;21.30;99.90
4687;DHT22;2357;47.316;-1.348;2023-08-20T00:37:17;21.20;99.90
4687;DHT22;2357;47.316;-1.348;2023-08-20T00:39:42;21.20;99.90
4687;DHT22;2357;47.316;-1.348;2023-08-20T00:42:08;21.20;99.90
4687;DHT22;2357;47.316;-1.348;2023-08-20T00:44:34;21.20;99.90
4687;DHT22;2357;47.316;-1.348;2023-08-20T00:47:01;21.20;99.90
4687;DHT22;2357;47.316;-1.348;2023-08-20T00:49:28;21.20;99.90
4687;DHT22;2357;47.316;-1.348;2023-08-20T00:51:54;21.10;99.90
4687;DHT22;2357;47.316;-1.348;2023-08-20T00:54:22;21.10;99.90
4687;DHT22;2357;47.316;-1.348;2023-08-20T00:56:49;21.10;99.90
4687;DHT22;2357;47.316;-1.348;2023-08-20T00:59:16;21.10;99.90
4687;DHT22;2357;47.316;-1.348;2023-08-20T01:01:41;21.10;99.90
4687;DHT22;2357;47.316;-1.348;2023-08-20T01:04:07;21.10;99.90
4687;DHT22;2357;47.316;-1.348;2023-08-20T01:07:03;21.20;99.90
4687;DHT22;2357;47.316;-1.348;2023-08-20T01:12:22;21.10;99.90
4687;DHT22;2357;47.316;-1.348;2023-08-20T01:14:49;21.10;99.90
4687;DHT22;2357;47.316;-1.348;2023-08-20T01:17:15;21.20;99.90
4687;DHT22;2357;47.316;-1.348;2023-08-20T01:19:41;21.20;99.90
4687;DHT22;2357;47.316;-1.348;2023-08-20T01:27:59;21.20;99.90
4687;DHT22;2357;47.316;-1.348;2023-08-20T01:30:29;21.20;99.90
4687;DHT22;2357;47.316;-1.348;2023-08-20T01:32:56;21.20;99.90
4687;DHT22;2357;47.316;-1.348;2023-08-20T01:35:24;21.00;99.90
4687;DHT22;2357;47.316;-1.348;2023-08-20T01:37:52;21.00;99.90
4687;DHT22;2357;47.316;-1.348;2023-08-20T01:40:17;21.10;99.90
4687;DHT22;2357;47.316;-1.348;2023-08-20T01:42:43;21.10;99.90
4687;DHT22;2357;47.316;-1.348;2023-08-20T01:45:09;21.10;99.90
4687;DHT22;2357;47.316;-1.348;2023-08-20T01:47:35;21.10;99.90
4687;DHT22;2357;47.316;-1.348;2023-08-20T01:50:00;21.10;99.90
4687;DHT22;2357;47.316;-1.348;2023-08-20T01:52:26;21.00;99.90
4687;DHT22;2357;47.316;-1.348;2023-08-20T01:54:52;21.00;99.90
4687;DHT22;2357;47.316;-1.348;2023-08-20T01:57:21;20.90;99.90
4687;DHT22;2357;47.316;-1.348;2023-08-20T01:59:49;20.90;99.90
4687;DHT22;2357;47.316;-1.348;2023-08-20T02:02:15;20.80;99.90
4687;DHT22;2357;47.316;-1.348;2023-08-20T02:04:40;20.80;99.90
4687;DHT22;2357;47.316;-1.348;2023-08-20T02:07:06;20.90;99.90
4687;DHT22;2357;47.316;-1.348;2023-08-20T02:09:32;20.80;99.90
4687;DHT22;2357;47.316;-1.348;2023-08-20T02:11:58;20.70;99.90
4687;DHT22;2357;47.316;-1.348;2023-08-20T02:14:23;20.70;99.90
4687;DHT22;2357;47.316;-1.348;2023-08-20T02:16:49;20.70;99.90
4687;DHT22;2357;47.316;-1.348;2023-08-20T02:19:15;20.70;99.90
4687;DHT22;2357;47.316;-1.348;2023-08-20T02:21:40;20.60;99.90
4687;DHT22;2357;47.316;-1.348;2023-08-20T02:24:06;20.60;99.90
4687;DHT22;2357;47.316;-1.348;2023-08-20T02:26:32;20.60;99.90
4687;DHT22;2357;47.316;-1.348;2023-08-20T02:28:58;20.30;99.90
4687;DHT22;2357;47.316;-1.348;2023-08-20T02:31:24;20.40;99.90
4687;DHT22;2357;47.316;-1.348;2023-08-20T02:33:49;20.30;99.90
4687;DHT22;2357;47.316;-1.348;2023-08-20T02:36:15;20.30;99.90
4687;DHT22;2357;47.316;-1.348;2023-08-20T02:38:41;20.30;99.90
4687;DHT22;2357;47.316;-1.348;2023-08-20T02:41:06;20.30;99.90
4687;DHT22;2357;47.316;-1.348;2023-08-20T02:43:32;20.20;99.90
4687;DHT22;2357;47.316;-1.348;2023-08-20T02:45:58;20.20;99.90
4687;DHT22;2357;47.316;-1.348;2023-08-20T02:48:23;20.20;99.90
4687;DHT22;2357;47.316;-1.348;2023-08-20T02:50:53;20.10;99.90
4687;DHT22;2357;47.316;-1.348;2023-08-20T02:53:20;20.10;99.90
4687;DHT22;2357;47.316;-1.348;2023-08-20T02:55:46;19.90;99.90
4687;DHT22;2357;47.316;-1.348;2023-08-20T02:58:11;20.10;99.90
4687;DHT22;2357;47.316;-1.348;2023-08-20T03:00:37;20.20;99.90
4687;DHT22;2357;47.316;-1.348;2023-08-20T03:03:04;20.20;99.90
4687;DHT22;2357;47.316;-1.348;2023-08-20T03:05:33;20.20;99.90
4687;DHT22;2357;47.316;-1.348;2023-08-20T03:07:59;20.20;99.90
4687;DHT22;2357;47.316;-1.348;2023-08-20T03:10:25;20.20;99.90
4687;DHT22;2357;47.316;-1.348;2023-08-20T03:12:51;20.20;99.90
4687;DHT22;2357;47.316;-1.348;2023-08-20T03:15:16;20.30;99.90
4687;DHT22;2357;47.316;-1.348;2023-08-20T03:17:42;20.30;99.90
4687;DHT22;2357;47.316;-1.348;2023-08-20T03:20:08;20.30;99.90
4687;DHT22;2357;47.316;-1.348;2023-08-20T03:22:37;20.30;99.90
4687;DHT22;2357;47.316;-1.348;2023-08-20T03:25:02;20.30;99.90
4687;DHT22;2357;47.316;-1.348;2023-08-20T03:27:28;20.40;99.90
4687;DHT22;2357;47.316;-1.348;2023-08-20T03:29:54;20.40;99.90
4687;DHT22;2357;47.316;-1.348;2023-08-20T03:32:19;20.30;99.90
4687;DHT22;2357;47.316;-1.348;2023-08-20T03:34:45;20.30;99.90
4687;DHT22;2357;47.316;-1.348;2023-08-20T03:37:11;20.30;99.90
4687;DHT22;2357;47.316;-1.348;2023-08-20T03:39:37;20.30;99.90
4687;DHT22;2357;47.316;-1.348;2023-08-20T03:42:03;20.30;99.90
4687;DHT22;2357;47.316;-1.348;2023-08-20T03:44:28;20.30;99.90
4687;DHT22;2357;47.316;-1.348;2023-08-20T03:46:55;20.30;99.90
4687;DHT22;2357;47.316;-1.348;2023-08-20T03:49:21;20.30;99.90
4687;DHT22;2357;47.316;-1.348;2023-08-20T03:51:47;20.30;99.90
4687;DHT22;2357;47.316;-1.348;2023-08-20T03:54:13;20.20;99.90
4687;DHT22;2357;47.316;-1.348;2023-08-20T03:56:38;20.20;99.90
4687;DHT22;2357;47.316;-1.348;2023-08-20T03:59:04;20.20;99.90
4687;DHT22;2357;47.316;-1.348;2023-08-20T04:01:30;20.20;99.90
4687;DHT22;2357;47.316;-1.348;2023-08-20T04:03:56;20.10;99.90
4687;DHT22;2357;47.316;-1.348;2023-08-20T04:06:21;20.00;99.90
4687;DHT22;2357;47.316;-1.348;2023-08-20T04:08:47;20.10;99.90
4687;DHT22;2357;47.316;-1.348;2023-08-20T04:11:13;20.10;99.90
4687;DHT22;2357;47.316;-1.348;2023-08-20T04:13:38;20.10;99.90
4687;DHT22;2357;47.316;-1.348;2023-08-20T04:16:05;20.10;99.90
4687;DHT22;2357;47.316;-1.348;2023-08-20T04:18:31;20.10;99.90
4687;DHT22;2357;47.316;-1.348;2023-08-20T04:20:56;20.00;99.90
4687;DHT22;2357;47.316;-1.348;2023-08-20T04:23:23;20.10;99.90
4687;DHT22;2357;47.316;-1.348;2023-08-20T04:25:48;19.80;99.90
4687;DHT22;2357;47.316;-1.348;2023-08-20T04:28:14;19.90;99.90
4687;DHT22;2357;47.316;-1.348;2023-08-20T04:30:39;20.00;99.90
4687;DHT22;2357;47.316;-1.348;2023-08-20T04:33:05;20.00;99.90
4687;DHT22;2357;47.316;-1.348;2023-08-20T04:35:31;20.00;99.90
4687;DHT22;2357;47.316;-1.348;2023-08-20T04:37:57;20.00;99.90
4687;DHT22;2357;47.316;-1.348;2023-08-20T04:40:23;20.10;99.90
4687;DHT22;2357;47.316;-1.348;2023-08-20T04:42:49;20.10;99.90
4687;DHT22;2357;47.316;-1.348;2023-08-20T04:45:15;20.10;99.90
4687;DHT22;2357;47.316;-1.348;2023-08-20T04:47:43;20.10;99.90
4687;DHT22;2357;47.316;-1.348;2023-08-20T04:50:09;20.00;99.90
4687;DHT22;2357;47.316;-1.348;2023-08-20T04:52:35;20.00;99.90
4687;DHT22;2357;47.316;-1.348;2023-08-20T04:55:01;20.00;99.90
4687;DHT22;2357;47.316;-1.348;2023-08-20T04:57:27;20.00;99.90
4687;DHT22;2357;47.316;-1.348;2023-08-20T04:59:53;19.90;99.90
4687;DHT22;2357;47.316;-1.348;2023-08-20T05:02:18;20.00;99.90
4687;DHT22;2357;47.316;-1.348;2023-08-20T05:04:44;20.00;99.90
4687;DHT22;2357;47.316;-1.348;2023-08-20T05:07:10;19.90;99.90
4687;DHT22;2357;47.316;-1.348;2023-08-20T05:09:35;20.00;99.90
4687;DHT22;2357;47.316;-1.348;2023-08-20T05:12:02;20.00;99.90
4687;DHT22;2357;47.316;-1.348;2023-08-20T05:14:28;19.90;99.90
4687;DHT22;2357;47.316;-1.348;2023-08-20T05:16:54;20.00;99.90
4687;DHT22;2357;47.316;-1.348;2023-08-20T05:19:20;19.90;99.90
4687;DHT22;2357;47.316;-1.348;2023-08-20T05:21:46;19.80;99.90
4687;DHT22;2357;47.316;-1.348;2023-08-20T05:24:11;19.80;99.90
4687;DHT22;2357;47.316;-1.348;2023-08-20T05:26:37;19.70;99.90
4687;DHT22;2357;47.316;-1.348;2023-08-20T05:29:02;19.70;99.90
4687;DHT22;2357;47.316;-1.348;2023-08-20T05:31:28;19.70;99.90
4687;DHT22;2357;47.316;-1.348;2023-08-20T05:33:54;19.70;99.90
4687;DHT22;2357;47.316;-1.348;2023-08-20T05:36:19;19.80;99.90
4687;DHT22;2357;47.316;-1.348;2023-08-20T05:38:45;19.80;99.90
4687;DHT22;2357;47.316;-1.348;2023-08-20T05:41:10;19.90;99.90
4687;DHT22;2357;47.316;-1.348;2023-08-20T05:43:36;19.90;99.90
4687;DHT22;2357;47.316;-1.348;2023-08-20T05:46:02;19.90;99.90
4687;DHT22;2357;47.316;-1.348;2023-08-20T05:48:28;19.90;99.90
4687;DHT22;2357;47.316;-1.348;2023-08-20T05:50:54;19.90;99.90
4687;DHT22;2357;47.316;-1.348;2023-08-20T05:53:21;20.00;99.90
4687;DHT22;2357;47.316;-1.348;2023-08-20T05:55:47;20.10;99.90
4687;DHT22;2357;47.316;-1.348;2023-08-20T05:58:12;20.10;99.90
4687;DHT22;2357;47.316;-1.348;2023-08-20T06:00:38;20.10;99.90
4687;DHT22;2357;47.316;-1.348;2023-08-20T06:03:04;20.10;99.90
4687;DHT22;2357;47.316;-1.348;2023-08-20T06:05:29;20.10;99.90
4687;DHT22;2357;47.316;-1.348;2023-08-20T06:07:55;20.20;99.90
4687;DHT22;2357;47.316;-1.348;2023-08-20T06:10:21;20.30;99.90
4687;DHT22;2357;47.316;-1.348;2023-08-20T06:12:46;20.20;99.90
4687;DHT22;2357;47.316;-1.348;2023-08-20T06:15:13;20.20;99.90
4687;DHT22;2357;47.316;-1.348;2023-08-20T06:17:38;20.20;99.90
4687;DHT22;2357;47.316;-1.348;2023-08-20T06:20:04;20.30;99.90
4687;DHT22;2357;47.316;-1.348;2023-08-20T06:22:37;20.20;99.90
4687;DHT22;2357;47.316;-1.348;2023-08-20T06:25:04;20.30;99.90
4687;DHT22;2357;47.316;-1.348;2023-08-20T06:27:30;20.20;99.90
4687;DHT22;2357;47.316;-1.348;2023-08-20T06:29:56;20.20;99.90
4687;DHT22;2357;47.316;-1.348;2023-08-20T06:32:21;20.20;99.90
4687;DHT22;2357;47.316;-1.348;2023-08-20T06:34:47;20.10;99.90
4687;DHT22;2357;47.316;-1.348;2023-08-20T06:37:13;20.10;99.90
4687;DHT22;2357;47.316;-1.348;2023-08-20T06:39:38;20.10;99.90
4687;DHT22;2357;47.316;-1.348;2023-08-20T06:42:04;20.10;99.90
4687;DHT22;2357;47.316;-1.348;2023-08-20T06:44:29;20.10;99.90
4687;DHT22;2357;47.316;-1.348;2023-08-20T06:46:55;20.20;99.90
4687;DHT22;2357;47.316;-1.348;2023-08-20T06:49:21;20.30;99.90
4687;DHT22;2357;47.316;-1.348;2023-08-20T06:51:46;20.30;99.90
4687;DHT22;2357;47.316;-1.348;2023-08-20T06:54:14;20.50;99.90
4687;DHT22;2357;47.316;-1.348;2023-08-20T06:56:39;20.60;99.90
4687;DHT22;2357;47.316;-1.348;2023-08-20T06:59:05;20.50;99.90
4687;DHT22;2357;47.316;-1.348;2023-08-20T07:01:30;20.50;99.90
4687;DHT22;2357;47.316;-1.348;2023-08-20T07:03:56;20.50;99.90
4687;DHT22;2357;47.316;-1.348;2023-08-20T07:06:22;20.60;99.90
4687;DHT22;2357;47.316;-1.348;2023-08-20T07:08:47;20.60;99.90
4687;DHT22;2357;47.316;-1.348;2023-08-20T07:11:13;20.70;99.90
4687;DHT22;2357;47.316;-1.348;2023-08-20T07:13:39;20.80;99.90
4687;DHT22;2357;47.316;-1.348;2023-08-20T07:16:04;20.90;99.90
4687;DHT22;2357;47.316;-1.348;2023-08-20T07:18:30;21.00;99.90
4687;DHT22;2357;47.316;-1.348;2023-08-20T07:20:56;21.00;99.90
4687;DHT22;2357;47.316;-1.348;2023-08-20T07:23:22;20.90;99.90
4687;DHT22;2357;47.316;-1.348;2023-08-20T07:25:48;20.90;99.90
4687;DHT22;2357;47.316;-1.348;2023-08-20T07:28:17;20.80;99.90
4687;DHT22;2357;47.316;-1.348;2023-08-20T07:30:52;20.80;99.90
4687;DHT22;2357;47.316;-1.348;2023-08-20T07:33:20;20.80;99.90
4687;DHT22;2357;47.316;-1.348;2023-08-20T07:35:46;20.80;99.90
4687;DHT22;2357;47.316;-1.348;2023-08-20T07:38:11;20.80;99.90
4687;DHT22;2357;47.316;-1.348;2023-08-20T07:40:37;20.80;99.90
4687;DHT22;2357;47.316;-1.348;2023-08-20T07:43:02;20.80;99.90
4687;DHT22;2357;47.316;-1.348;2023-08-20T07:45:28;20.80;99.90
4687;DHT22;2357;47.316;-1.348;2023-08-20T07:47:54;20.80;99.90
4687;DHT22;2357;47.316;-1.348;2023-08-20T07:50:19;20.80;99.90
4687;DHT22;2357;47.316;-1.348;2023-08-20T07:52:45;20.90;99.90
4687;DHT22;2357;47.316;-1.348;2023-08-20T07:55:10;21.00;99.90
4687;DHT22;2357;47.316;-1.348;2023-08-20T07:57:36;21.10;99.90
4687;DHT22;2357;47.316;-1.348;2023-08-20T08:00:02;21.00;99.90
4687;DHT22;2357;47.316;-1.348;2023-08-20T08:02:29;21.20;99.90
4687;DHT22;2357;47.316;-1.348;2023-08-20T08:04:55;21.40;99.90
4687;DHT22;2357;47.316;-1.348;2023-08-20T08:07:21;21.40;99.90
4687;DHT22;2357;47.316;-1.348;2023-08-20T08:09:46;21.60;99.90
4687;DHT22;2357;47.316;-1.348;2023-08-20T08:12:12;21.80;99.90
4687;DHT22;2357;47.316;-1.348;2023-08-20T08:14:37;21.90;99.90
4687;DHT22;2357;47.316;-1.348;2023-08-20T08:17:03;21.90;99.90
4687;DHT22;2357;47.316;-1.348;2023-08-20T08:19:29;21.90;99.90
4687;DHT22;2357;47.316;-1.348;2023-08-20T08:21:56;21.90;99.90
4687;DHT22;2357;47.316;-1.348;2023-08-20T08:24:21;22.00;99.90
4687;DHT22;2357;47.316;-1.348;2023-08-20T08:26:47;21.90;99.90
4687;DHT22;2357;47.316;-1.348;2023-08-20T08:29:13;21.80;99.90
4687;DHT22;2357;47.316;-1.348;2023-08-20T08:31:38;21.80;99.90
4687;DHT22;2357;47.316;-1.348;2023-08-20T08:34:04;21.90;99.90
4687;DHT22;2357;47.316;-1.348;2023-08-20T08:36:30;21.80;99.90
4687;DHT22;2357;47.316;-1.348;2023-08-20T08:38:56;21.90;99.90
4687;DHT22;2357;47.316;-1.348;2023-08-20T08:41:22;22.10;99.90
4687;DHT22;2357;47.316;-1.348;2023-08-20T08:43:51;22.30;99.90
4687;DHT22;2357;47.316;-1.348;2023-08-20T08:46:17;22.60;99.90
4687;DHT22;2357;47.316;-1.348;2023-08-20T08:48:45;22.80;99.90
4687;DHT22;2357;47.316;-1.348;2023-08-20T08:51:14;22.80;99.90
4687;DHT22;2357;47.316;-1.348;2023-08-20T08:53:42;22.80;99.90
4687;DHT22;2357;47.316;-1.348;2023-08-20T08:56:09;22.80;99.90
4687;DHT22;2357;47.316;-1.348;2023-08-20T08:58:35;22.70;99.90
4687;DHT22;2357;47.316;-1.348;2023-08-20T09:01:00;22.70;99.90
4687;DHT22;2357;47.316;-1.348;2023-08-20T09:03:26;22.90;99.90
4687;DHT22;2357;47.316;-1.348;2023-08-20T09:05:57;23.00;99.90
4687;DHT22;2357;47.316;-1.348;2023-08-20T09:08:27;23.10;99.90
4687;DHT22;2357;47.316;-1.348;2023-08-20T09:10:55;23.20;99.90
4687;DHT22;2357;47.316;-1.348;2023-08-20T09:13:34;23.10;99.90
4687;DHT22;2357;47.316;-1.348;2023-08-20T09:16:03;23.00;99.90
4687;DHT22;2357;47.316;-1.348;2023-08-20T09:18:29;23.20;99.90
4687;DHT22;2357;47.316;-1.348;2023-08-20T09:20:57;23.50;99.90
4687;DHT22;2357;47.316;-1.348;2023-08-20T09:23:23;23.70;99.90
4687;DHT22;2357;47.316;-1.348;2023-08-20T09:25:48;23.70;99.90
4687;DHT22;2357;47.316;-1.348;2023-08-20T09:28:14;23.60;99.90
4687;DHT22;2357;47.316;-1.348;2023-08-20T09:30:40;23.70;99.90
4687;DHT22;2357;47.316;-1.348;2023-08-20T09:33:19;23.70;99.90
4687;DHT22;2357;47.316;-1.348;2023-08-20T09:35:51;23.70;99.90
4687;DHT22;2357;47.316;-1.348;2023-08-20T09:38:20;23.80;99.90
4687;DHT22;2357;47.316;-1.348;2023-08-20T09:40:50;23.90;99.90
4687;DHT22;2357;47.316;-1.348;2023-08-20T09:43:18;23.80;99.90
4687;DHT22;2357;47.316;-1.348;2023-08-20T09:45:46;23.90;99.90
4687;DHT22;2357;47.316;-1.348;2023-08-20T09:48:15;23.80;99.90
4687;DHT22;2357;47.316;-1.348;2023-08-20T09:50:43;23.90;99.90
4687;DHT22;2357;47.316;-1.348;2023-08-20T09:53:27;24.00;99.90
4687;DHT22;2357;47.316;-1.348;2023-08-20T09:56:09;24.00;99.90
4687;DHT22;2357;47.316;-1.348;2023-08-20T09:58:38;24.00;99.90
4687;DHT22;2357;47.316;-1.348;2023-08-20T10:01:06;24.20;99.90
4687;DHT22;2357;47.316;-1.348;2023-08-20T10:03:33;24.30;99.90
4687;DHT22;2357;47.316;-1.348;2023-08-20T10:06:00;24.10;99.90
4687;DHT22;2357;47.316;-1.348;2023-08-20T10:08:27;24.20;99.90
4687;DHT22;2357;47.316;-1.348;2023-08-20T10:10:53;24.20;99.90
4687;DHT22;2357;47.316;-1.348;2023-08-20T10:13:18;24.10;99.90
4687;DHT22;2357;47.316;-1.348;2023-08-20T10:15:44;24.20;99.90
4687;DHT22;2357;47.316;-1.348;2023-08-20T10:18:11;24.40;99.90
4687;DHT22;2357;47.316;-1.348;2023-08-20T10:20:39;24.50;99.90
4687;DHT22;2357;47.316;-1.348;2023-08-20T10:23:06;24.50;99.90
4687;DHT22;2357;47.316;-1.348;2023-08-20T10:25:40;24.50;99.90
4687;DHT22;2357;47.316;-1.348;2023-08-20T10:28:21;24.40;99.90
4687;DHT22;2357;47.316;-1.348;2023-08-20T10:31:09;24.30;99.90
4687;DHT22;2357;47.316;-1.348;2023-08-20T10:33:36;24.10;99.90
4687;DHT22;2357;47.316;-1.348;2023-08-20T10:36:10;24.20;99.90
4687;DHT22;2357;47.316;-1.348;2023-08-20T10:38:36;24.30;99.90
4687;DHT22;2357;47.316;-1.348;2023-08-20T10:41:06;24.20;99.90
4687;DHT22;2357;47.316;-1.348;2023-08-20T10:43:45;24.10;99.90
4687;DHT22;2357;47.316;-1.348;2023-08-20T10:46:20;24.30;99.90
4687;DHT22;2357;47.316;-1.348;2023-08-20T10:48:47;24.70;99.90
4687;DHT22;2357;47.316;-1.348;2023-08-20T10:51:28;25.00;99.90
4687;DHT22;2357;47.316;-1.348;2023-08-20T10:56:43;25.50;99.90
4687;DHT22;2357;47.316;-1.348;2023-08-20T10:59:21;25.60;99.90
4687;DHT22;2357;47.316;-1.348;2023-08-20T11:01:49;25.70;99.90
4687;DHT22;2357;47.316;-1.348;2023-08-20T11:04:16;25.90;99.90
4687;DHT22;2357;47.316;-1.348;2023-08-20T11:06:42;25.70;99.90
4687;DHT22;2357;47.316;-1.348;2023-08-20T11:09:08;25.70;99.90
4687;DHT22;2357;47.316;-1.348;2023-08-20T11:11:34;25.80;99.90
4687;DHT22;2357;47.316;-1.348;2023-08-20T11:14:05;25.80;99.90
4687;DHT22;2357;47.316;-1.348;2023-08-20T11:16:33;25.90;99.90
4687;DHT22;2357;47.316;-1.348;2023-08-20T11:18:59;25.70;99.90
4687;DHT22;2357;47.316;-1.348;2023-08-20T11:21:25;25.80;99.90
4687;DHT22;2357;47.316;-1.348;2023-08-20T11:23:51;25.80;99.90
4687;DHT22;2357;47.316;-1.348;2023-08-20T11:26:17;25.80;99.90
4687;DHT22;2357;47.316;-1.348;2023-08-20T11:28:46;26.00;99.90
4687;DHT22;2357;47.316;-1.348;2023-08-20T11:31:12;26.10;99.90
4687;DHT22;2357;47.316;-1.348;2023-08-20T11:33:38;26.20;99.90
4687;DHT22;2357;47.316;-1.348;2023-08-20T11:36:05;26.30;99.90
4687;DHT22;2357;47.316;-1.348;2023-08-20T11:38:31;26.30;99.90
4687;DHT22;2357;47.316;-1.348;2023-08-20T11:40:58;26.20;99.90
4687;DHT22;2357;47.316;-1.348;2023-08-20T11:43:28;25.80;99.90
4687;DHT22;2357;47.316;-1.348;2023-08-20T11:45:54;26.30;99.90
4687;DHT22;2357;47.316;-1.348;2023-08-20T11:48:20;26.80;99.90
4687;DHT22;2357;47.316;-1.348;2023-08-20T11:50:47;26.80;99.90
4687;DHT22;2357;47.316;-1.348;2023-08-20T11:53:13;27.00;99.90
4687;DHT22;2357;47.316;-1.348;2023-08-20T11:55:42;27.30;99.90
4687;DHT22;2357;47.316;-1.348;2023-08-20T11:58:13;27.60;99.90
4687;DHT22;2357;47.316;-1.348;2023-08-20T12:00:40;27.60;99.90
4687;DHT22;2357;47.316;-1.348;2023-08-20T12:03:05;27.40;99.90
4687;DHT22;2357;47.316;-1.348;2023-08-20T12:05:32;27.80;99.90
4687;DHT22;2357;47.316;-1.348;2023-08-20T12:07:59;27.90;99.90
4687;DHT22;2357;47.316;-1.348;2023-08-20T12:10:26;27.60;99.90
4687;DHT22;2357;47.316;-1.348;2023-08-20T12:12:54;27.30;99.90
4687;DHT22;2357;47.316;-1.348;2023-08-20T12:15:20;27.30;99.90
4687;DHT22;2357;47.316;-1.348;2023-08-20T12:17:56;27.20;99.90
4687;DHT22;2357;47.316;-1.348;2023-08-20T12:20:22;27.60;99.90
4687;DHT22;2357;47.316;-1.348;2023-08-20T12:22:48;27.60;99.90
4687;DHT22;2357;47.316;-1.348;2023-08-20T12:25:14;27.60;99.90
4687;DHT22;2357;47.316;-1.348;2023-08-20T12:27:40;27.60;99.90
4687;DHT22;2357;47.316;-1.348;2023-08-20T12:30:07;27.10;99.90
4687;DHT22;2357;47.316;-1.348;2023-08-20T12:32:32;27.10;99.90
4687;DHT22;2357;47.316;-1.348;2023-08-20T12:34:58;27.40;99.90
4687;DHT22;2357;47.316;-1.348;2023-08-20T12:37:23;28.00;99.90
4687;DHT22;2357;47.316;-1.348;2023-08-20T12:39:49;28.30;99.90
4687;DHT22;2357;47.316;-1.348;2023-08-20T12:42:15;28.20;99.90
4687;DHT22;2357;47.316;-1.348;2023-08-20T12:44:40;28.00;99.90
4687;DHT22;2357;47.316;-1.348;2023-08-20T12:47:06;27.90;99.90
4687;DHT22;2357;47.316;-1.348;2023-08-20T12:49:31;27.90;99.90
4687;DHT22;2357;47.316;-1.348;2023-08-20T12:51:57;28.00;99.90
4687;DHT22;2357;47.316;-1.348;2023-08-20T12:54:22;28.20;99.90
4687;DHT22;2357;47.316;-1.348;2023-08-20T12:56:48;28.10;99.90
4687;DHT22;2357;47.316;-1.348;2023-08-20T12:59:14;28.00;99.90
4687;DHT22;2357;47.316;-1.348;2023-08-20T13:01:39;27.90;99.90
4687;DHT22;2357;47.316;-1.348;2023-08-20T13:04:05;27.70;99.90
4687;DHT22;2357;47.316;-1.348;2023-08-20T13:06:31;28.00;99.90
4687;DHT22;2357;47.316;-1.348;2023-08-20T13:08:57;27.70;99.90
4687;DHT22;2357;47.316;-1.348;2023-08-20T13:11:26;27.40;99.90
4687;DHT22;2357;47.316;-1.348;2023-08-20T13:13:53;27.50;99.90
4687;DHT22;2357;47.316;-1.348;2023-08-20T13:16:19;27.70;99.90
4687;DHT22;2357;47.316;-1.348;2023-08-20T13:18:45;27.70;99.90
4687;DHT22;2357;47.316;-1.348;2023-08-20T13:21:11;27.90;99.90
4687;DHT22;2357;47.316;-1.348;2023-08-20T13:23:36;27.90;99.90
4687;DHT22;2357;47.316;-1.348;2023-08-20T13:26:02;28.00;99.90
4687;DHT22;2357;47.316;-1.348;2023-08-20T13:28:28;27.90;99.90
4687;DHT22;2357;47.316;-1.348;2023-08-20T13:30:54;27.60;99.90
4687;DHT22;2357;47.316;-1.348;2023-08-20T13:33:20;27.80;99.90
4687;DHT22;2357;47.316;-1.348;2023-08-20T13:35:45;28.40;99.90
4687;DHT22;2357;47.316;-1.348;2023-08-20T13:38:11;28.50;99.90
4687;DHT22;2357;47.316;-1.348;2023-08-20T13:40:37;29.20;99.90
4687;DHT22;2357;47.316;-1.348;2023-08-20T13:43:03;28.90;99.90
4687;DHT22;2357;47.316;-1.348;2023-08-20T13:45:28;29.00;99.90
4687;DHT22;2357;47.316;-1.348;2023-08-20T13:47:54;29.10;99.90
4687;DHT22;2357;47.316;-1.348;2023-08-20T13:50:20;29.30;99.90
4687;DHT22;2357;47.316;-1.348;2023-08-20T13:52:46;29.00;99.90
4687;DHT22;2357;47.316;-1.348;2023-08-20T13:55:12;29.10;99.90
4687;DHT22;2357;47.316;-1.348;2023-08-20T13:57:37;29.00;99.90
4687;DHT22;2357;47.316;-1.348;2023-08-20T14:00:04;28.80;99.90
4687;DHT22;2357;47.316;-1.348;2023-08-20T14:02:35;29.20;99.90
4687;DHT22;2357;47.316;-1.348;2023-08-20T14:05:01;29.10;99.90
4687;DHT22;2357;47.316;-1.348;2023-08-20T14:07:29;28.80;99.90
4687;DHT22;2357;47.316;-1.348;2023-08-20T14:09:55;28.70;99.90
4687;DHT22;2357;47.316;-1.348;2023-08-20T14:12:21;28.60;99.90
4687;DHT22;2357;47.316;-1.348;2023-08-20T14:14:46;28.50;99.90
4687;DHT22;2357;47.316;-1.348;2023-08-20T14:17:12;28.50;99.90
4687;DHT22;2357;47.316;-1.348;2023-08-20T14:19:37;28.90;99.90
4687;DHT22;2357;47.316;-1.348;2023-08-20T14:22:03;28.80;99.90
4687;DHT22;2357;47.316;-1.348;2023-08-20T14:24:29;29.30;99.90
4687;DHT22;2357;47.316;-1.348;2023-08-20T14:26:54;29.80;99.90
4687;DHT22;2357;47.316;-1.348;2023-08-20T14:29:20;29.60;99.90
4687;DHT22;2357;47.316;-1.348;2023-08-20T14:31:46;28.90;99.90
4687;DHT22;2357;47.316;-1.348;2023-08-20T14:34:11;28.90;99.90
4687;DHT22;2357;47.316;-1.348;2023-08-20T14:36:37;29.00;99.90
4687;DHT22;2357;47.316;-1.348;2023-08-20T14:39:04;28.60;99.90
4687;DHT22;2357;47.316;-1.348;2023-08-20T14:41:30;28.60;99.90
4687;DHT22;2357;47.316;-1.348;2023-08-20T14:43:56;28.40;99.90
4687;DHT22;2357;47.316;-1.348;2023-08-20T14:46:21;28.50;99.90
4687;DHT22;2357;47.316;-1.348;2023-08-20T14:48:47;28.50;99.90
4687;DHT22;2357;47.316;-1.348;2023-08-20T14:51:13;28.50;99.90
4687;DHT22;2357;47.316;-1.348;2023-08-20T14:53:39;28.30;99.90
4687;DHT22;2357;47.316;-1.348;2023-08-20T14:56:04;28.30;99.90
4687;DHT22;2357;47.316;-1.348;2023-08-20T14:58:30;28.40;99.90
4687;DHT22;2357;47.316;-1.348;2023-08-20T15:00:56;28.60;99.90
4687;DHT22;2357;47.316;-1.348;2023-08-20T15:03:21;28.70;99.90
4687;DHT22;2357;47.316;-1.348;2023-08-20T15:05:47;28.70;99.90
4687;DHT22;2357;47.316;-1.348;2023-08-20T15:08:14;28.90;99.90
4687;DHT22;2357;47.316;-1.348;2023-08-20T15:10:40;29.10;99.90
4687;DHT22;2357;47.316;-1.348;2023-08-20T15:13:05;29.60;99.90
4687;DHT22;2357;47.316;-1.348;2023-08-20T15:15:31;29.40;99.90
4687;DHT22;2357;47.316;-1.348;2023-08-20T15:17:57;29.10;99.90
4687;DHT22;2357;47.316;-1.348;2023-08-20T15:20:23;28.90;99.90
4687;DHT22;2357;47.316;-1.348;2023-08-20T15:22:48;29.40;99.90
4687;DHT22;2357;47.316;-1.348;2023-08-20T15:25:14;29.60;99.90
4687;DHT22;2357;47.316;-1.348;2023-08-20T15:27:40;29.90;99.90
4687;DHT22;2357;47.316;-1.348;2023-08-20T15:30:07;29.60;99.90
4687;DHT22;2357;47.316;-1.348;2023-08-20T15:32:33;29.40;99.90
4687;DHT22;2357;47.316;-1.348;2023-08-20T15:34:59;29.40;99.90
4687;DHT22;2357;47.316;-1.348;2023-08-20T15:37:25;29.40;99.90
4687;DHT22;2357;47.316;-1.348;2023-08-20T15:39:51;29.30;99.90
4687;DHT22;2357;47.316;-1.348;2023-08-20T15:42:17;28.90;99.90
4687;DHT22;2357;47.316;-1.348;2023-08-20T15:44:43;29.00;99.90
4687;DHT22;2357;47.316;-1.348;2023-08-20T15:47:09;29.20;99.90
4687;DHT22;2357;47.316;-1.348;2023-08-20T15:49:35;29.20;99.90
4687;DHT22;2357;47.316;-1.348;2023-08-20T15:52:01;29.20;99.90